createdAt,value
2022-12-04T00:00:13.154Z,70.84
2022-12-04T00:01:13.167Z,70.75
2022-12-04T00:02:13.142Z,70.75
2022-12-04T00:03:13.244Z,70.94
2022-12-04T00:04:13.200Z,70.94
2022-12-04T00:05:13.246Z,71.03
2022-12-04T00:06:13.124Z,70.65
2022-12-04T00:07:13.141Z,70.56
2022-12-04T00:08:13.173Z,70.94
2022-12-04T00:09:13.126Z,70.94
2022-12-04T00:10:13.126Z,70.65
2022-12-04T00:11:13.100Z,70.46
2022-12-04T00:12:13.111Z,70.46
2022-12-04T00:13:13.088Z,70.46
2022-12-04T00:14:13.105Z,70.46
2022-12-04T00:15:28.533Z,70.75
2022-12-04T00:16:13.156Z,70.56
2022-12-04T00:17:13.086Z,70.65
2022-12-04T00:18:13.072Z,70.56
2022-12-04T00:19:13.081Z,70.56
2022-12-04T00:20:13.064Z,70.84
2022-12-04T00:21:13.062Z,70.46
2022-12-04T00:22:13.053Z,70.65
2022-12-04T00:23:13.059Z,70.65
2022-12-04T00:24:13.041Z,70.56
2022-12-04T00:25:13.045Z,70.46
2022-12-04T00:26:13.032Z,70.56
2022-12-04T00:27:13.023Z,70.56
2022-12-04T00:28:13.009Z,70.56
2022-12-04T00:29:13.019Z,70.75
2022-12-04T00:30:13.008Z,70.65
2022-12-04T00:31:13.064Z,70.46
2022-12-04T00:32:13.004Z,70.46
2022-12-04T00:33:13.008Z,70.75
2022-12-04T00:34:12.987Z,70.46
2022-12-04T00:35:13.006Z,70.84
2022-12-04T00:36:12.981Z,70.75
2022-12-04T00:37:12.969Z,70.84
2022-12-04T00:38:12.988Z,70.84
2022-12-04T00:39:12.967Z,70.84
2022-12-04T00:40:12.946Z,70.75
2022-12-04T00:41:12.943Z,70.84
2022-12-04T00:42:12.934Z,70.75
2022-12-04T00:43:12.973Z,70.65
2022-12-04T00:44:12.937Z,70.75
2022-12-04T00:45:12.938Z,70.84
2022-12-04T00:46:12.956Z,70.65
2022-12-04T00:47:12.924Z,70.56
2022-12-04T00:48:12.916Z,70.65
2022-12-04T00:49:12.905Z,70.65
2022-12-04T00:50:12.896Z,70.56
2022-12-04T00:51:12.908Z,70.46
2022-12-04T00:52:12.897Z,70.46
2022-12-04T00:53:12.882Z,70.56
2022-12-04T00:54:12.873Z,70.56
2022-12-04T00:55:12.886Z,70.46
2022-12-04T00:56:12.872Z,70.46
2022-12-04T00:57:12.859Z,70.46
2022-12-04T00:58:12.876Z,70.36
2022-12-04T00:59:12.865Z,70.36
2022-12-04T01:00:12.838Z,70.36
2022-12-04T01:01:12.909Z,70.46
2022-12-04T01:02:12.846Z,70.36
2022-12-04T01:03:12.988Z,70.46
2022-12-04T01:04:12.819Z,70.36
2022-12-04T01:05:12.829Z,70.46
2022-12-04T01:06:12.820Z,70.36
2022-12-04T01:07:12.838Z,70.65
2022-12-04T01:08:12.971Z,70.56
2022-12-04T01:09:12.795Z,70.36
2022-12-04T01:10:12.804Z,70.65
2022-12-04T01:11:12.793Z,70.27
2022-12-04T01:12:17.575Z,70.17
2022-12-04T01:13:12.774Z,70.17
2022-12-04T01:14:12.768Z,70.36
2022-12-04T01:15:12.777Z,69.98
2022-12-04T01:16:12.792Z,70.23
2022-12-04T01:17:12.769Z,69.98
2022-12-04T01:18:12.745Z,70.17
2022-12-04T01:19:12.748Z,70.27
2022-12-04T01:20:12.747Z,69.98
2022-12-04T01:21:12.731Z,70.36
2022-12-04T01:22:12.735Z,70.46
2022-12-04T01:23:12.760Z,70.17
2022-12-04T01:24:12.738Z,70.17
2022-12-04T01:25:12.713Z,70.46
2022-12-04T01:26:12.714Z,70.17
2022-12-04T01:27:12.703Z,70.36
2022-12-04T01:28:12.697Z,70.46
2022-12-04T01:29:12.705Z,70.46
2022-12-04T01:30:12.692Z,69.98
2022-12-04T01:31:12.765Z,70.07
2022-12-04T01:32:12.784Z,69.98
2022-12-04T01:33:12.663Z,69.95
2022-12-04T01:34:12.674Z,70.07
2022-12-04T01:35:12.657Z,70.07
2022-12-04T01:36:12.674Z,70.07
2022-12-04T01:37:12.659Z,70.17
2022-12-04T01:38:12.643Z,69.98
2022-12-04T01:39:12.671Z,70.27
2022-12-04T01:40:12.648Z,70.17
2022-12-04T01:41:12.635Z,70.17
2022-12-04T01:42:12.620Z,70.17
2022-12-04T01:43:12.624Z,70.14
2022-12-04T01:44:12.616Z,70.17
2022-12-04T01:45:12.605Z,70.17
2022-12-04T01:46:12.754Z,70.07
2022-12-04T01:47:12.604Z,69.79
2022-12-04T01:48:12.610Z,70.17
2022-12-04T01:49:12.593Z,70.27
2022-12-04T01:50:12.598Z,70.46
2022-12-04T01:51:12.572Z,70.27
2022-12-04T01:52:12.579Z,70.33
2022-12-04T01:53:12.576Z,70.36
2022-12-04T01:54:12.555Z,70.27
2022-12-04T01:55:12.568Z,70.14
2022-12-04T01:56:12.563Z,69.70
2022-12-04T01:57:12.553Z,69.89
2022-12-04T01:58:12.533Z,69.89
2022-12-04T01:59:12.526Z,70.04
2022-12-04T02:00:12.524Z,69.95
2022-12-04T02:01:12.590Z,69.70
2022-12-04T02:02:12.666Z,69.56
2022-12-04T02:03:12.540Z,69.09
2022-12-04T02:04:12.516Z,69.18
2022-12-04T02:05:12.508Z,69.56
2022-12-04T02:06:12.515Z,69.12
2022-12-04T02:07:12.494Z,69.47
2022-12-04T02:08:12.563Z,69.09
2022-12-04T02:09:12.477Z,69.47
2022-12-04T02:10:12.475Z,69.47
2022-12-04T02:11:12.498Z,69.47
2022-12-04T02:12:12.479Z,69.31
2022-12-04T02:13:12.452Z,69.56
2022-12-04T02:14:12.466Z,69.56
2022-12-04T02:15:12.444Z,69.70
2022-12-04T02:16:12.518Z,69.37
2022-12-04T02:17:12.445Z,69.47
2022-12-04T02:18:12.428Z,69.37
2022-12-04T02:19:12.433Z,69.41
2022-12-04T02:20:12.487Z,69.41
2022-12-04T02:21:12.415Z,69.56
2022-12-04T02:22:12.428Z,69.37
2022-12-04T02:23:12.416Z,69.60
2022-12-04T02:24:12.398Z,69.60
2022-12-04T02:25:12.389Z,69.60
2022-12-04T02:26:12.403Z,69.47
2022-12-04T02:27:12.411Z,69.50
2022-12-04T02:28:12.389Z,69.37
2022-12-04T02:29:12.368Z,69.47
2022-12-04T02:30:12.378Z,69.37
2022-12-04T02:31:12.471Z,69.37
2022-12-04T02:32:12.364Z,69.47
2022-12-04T02:33:12.357Z,69.47
2022-12-04T02:34:12.350Z,69.76
2022-12-04T02:35:12.335Z,69.70
2022-12-04T02:36:12.344Z,69.66
2022-12-04T02:37:12.335Z,69.56
2022-12-04T02:38:12.326Z,69.47
2022-12-04T02:39:12.330Z,69.76
2022-12-04T02:40:12.309Z,69.37
2022-12-04T02:41:12.314Z,69.60
2022-12-04T02:42:12.312Z,69.70
2022-12-04T02:43:12.331Z,69.85
2022-12-04T02:44:12.303Z,69.37
2022-12-04T02:45:12.292Z,69.66
2022-12-04T02:46:12.391Z,69.76
2022-12-04T02:47:12.266Z,69.76
2022-12-04T02:48:12.276Z,69.98
2022-12-04T02:49:12.257Z,69.76
2022-12-04T02:50:12.254Z,69.47
2022-12-04T02:51:12.266Z,69.47
2022-12-04T02:52:12.276Z,69.56
2022-12-04T02:53:12.248Z,69.56
2022-12-04T02:54:12.246Z,69.66
2022-12-04T02:55:12.226Z,69.66
2022-12-04T02:56:12.225Z,69.66
2022-12-04T02:57:12.217Z,69.66
2022-12-04T02:58:12.214Z,69.76
2022-12-04T02:59:12.236Z,69.66
2022-12-04T03:00:12.209Z,69.76
2022-12-04T03:01:12.241Z,69.66
2022-12-04T03:02:12.273Z,69.27
2022-12-04T03:03:12.181Z,69.47
2022-12-04T03:04:12.183Z,69.47
2022-12-04T03:05:12.188Z,69.47
2022-12-04T03:06:12.175Z,69.37
2022-12-04T03:07:12.162Z,69.66
2022-12-04T03:08:12.220Z,69.66
2022-12-04T03:09:12.172Z,69.66
2022-12-04T03:10:12.173Z,69.70
2022-12-04T03:11:12.152Z,69.09
2022-12-04T03:12:12.152Z,69.09
2022-12-04T03:13:12.127Z,69.09
2022-12-04T03:14:12.137Z,68.99
2022-12-04T03:15:12.153Z,69.09
2022-12-04T03:16:12.129Z,68.99
2022-12-04T03:17:12.301Z,69.09
2022-12-04T03:18:12.120Z,69.09
2022-12-04T03:19:12.109Z,69.09
2022-12-04T03:20:12.094Z,68.99
2022-12-04T03:21:12.082Z,68.99
2022-12-04T03:22:12.091Z,69.09
2022-12-04T03:23:12.094Z,69.09
2022-12-04T03:24:12.085Z,68.99
2022-12-04T03:25:12.083Z,68.99
2022-12-04T03:26:12.066Z,69.09
2022-12-04T03:27:12.054Z,68.99
2022-12-04T03:28:12.061Z,69.09
2022-12-04T03:29:12.062Z,68.99
2022-12-04T03:30:12.052Z,69.18
2022-12-04T03:31:12.152Z,68.99
2022-12-04T03:32:12.065Z,68.99
2022-12-04T03:33:12.044Z,69.09
2022-12-04T03:34:12.031Z,69.09
2022-12-04T03:35:12.011Z,69.09
2022-12-04T03:36:12.032Z,69.09
2022-12-04T03:37:12.021Z,69.18
2022-12-04T03:38:12.007Z,69.09
2022-12-04T03:39:11.983Z,69.18
2022-12-04T03:40:11.995Z,69.18
2022-12-04T03:41:11.992Z,69.18
2022-12-04T03:42:11.984Z,69.09
2022-12-04T03:43:11.977Z,69.09
2022-12-04T03:44:11.979Z,69.27
2022-12-04T03:45:11.957Z,69.18
2022-12-04T03:46:11.993Z,69.18
2022-12-04T03:47:11.973Z,69.18
2022-12-04T03:48:11.951Z,69.18
2022-12-04T03:49:11.948Z,69.18
2022-12-04T03:50:11.956Z,69.18
2022-12-04T03:51:11.936Z,69.18
2022-12-04T03:52:11.918Z,69.09
2022-12-04T03:53:11.922Z,69.27
2022-12-04T03:54:11.914Z,69.09
2022-12-04T03:55:11.919Z,68.90
2022-12-04T03:56:11.904Z,68.99
2022-12-04T03:57:11.905Z,68.80
2022-12-04T03:58:11.895Z,68.90
2022-12-04T03:59:11.906Z,68.80
2022-12-04T04:00:11.956Z,68.70
2022-12-04T04:01:11.954Z,68.51
2022-12-04T04:02:11.917Z,68.90
2022-12-04T04:03:11.889Z,68.80
2022-12-04T04:04:11.853Z,68.70
2022-12-04T04:05:11.849Z,68.90
2022-12-04T04:06:11.849Z,68.70
2022-12-04T04:07:11.835Z,68.70
2022-12-04T04:08:11.892Z,68.70
2022-12-04T04:09:11.836Z,68.70
2022-12-04T04:10:11.823Z,68.70
2022-12-04T04:11:11.819Z,68.51
2022-12-04T04:12:11.822Z,68.70
2022-12-04T04:13:11.831Z,68.70
2022-12-04T04:14:11.801Z,68.80
2022-12-04T04:15:11.811Z,68.90
2022-12-04T04:16:11.861Z,68.70
2022-12-04T04:17:11.795Z,68.70
2022-12-04T04:18:11.795Z,68.80
2022-12-04T04:19:11.802Z,68.70
2022-12-04T04:20:11.796Z,68.90
2022-12-04T04:21:11.773Z,68.70
2022-12-04T04:22:11.754Z,68.80
2022-12-04T04:23:11.758Z,68.70
2022-12-04T04:24:11.749Z,68.90
2022-12-04T04:25:11.753Z,68.70
2022-12-04T04:26:11.733Z,68.90
2022-12-04T04:27:11.792Z,68.70
2022-12-04T04:28:11.744Z,68.99
2022-12-04T04:29:11.715Z,68.80
2022-12-04T04:30:11.709Z,68.90
2022-12-04T04:31:11.768Z,68.90
2022-12-04T04:32:11.703Z,68.90
2022-12-04T04:33:11.700Z,68.90
2022-12-04T04:34:11.698Z,68.99
2022-12-04T04:35:11.707Z,68.80
2022-12-04T04:36:11.685Z,68.70
2022-12-04T04:37:11.672Z,68.99
2022-12-04T04:38:11.664Z,68.90
2022-12-04T04:39:11.670Z,68.99
2022-12-04T04:40:11.655Z,68.80
2022-12-04T04:41:11.661Z,68.80
2022-12-04T04:42:11.659Z,68.61
2022-12-04T04:43:11.652Z,68.61
2022-12-04T04:44:11.655Z,68.32
2022-12-04T04:45:11.630Z,68.70
2022-12-04T04:46:11.733Z,68.61
2022-12-04T04:47:11.624Z,68.61
2022-12-04T04:48:11.628Z,68.41
2022-12-04T04:49:11.607Z,68.51
2022-12-04T04:50:11.606Z,68.41
2022-12-04T04:51:11.618Z,68.70
2022-12-04T04:52:11.598Z,68.70
2022-12-04T04:53:11.582Z,68.61
2022-12-04T04:54:11.585Z,68.70
2022-12-04T04:55:11.568Z,68.61
2022-12-04T04:56:11.565Z,68.51
2022-12-04T04:57:11.579Z,68.23
2022-12-04T04:58:11.554Z,68.99
2022-12-04T04:59:11.548Z,68.51
2022-12-04T05:00:11.548Z,69.09
2022-12-04T05:01:11.739Z,68.23
2022-12-04T05:02:11.617Z,68.23
2022-12-04T05:03:11.614Z,68.99
2022-12-04T05:04:11.537Z,68.90
2022-12-04T05:05:11.512Z,68.80
2022-12-04T05:06:11.515Z,68.80
2022-12-04T05:07:11.540Z,68.70
2022-12-04T05:08:11.534Z,68.80
2022-12-04T05:09:11.510Z,68.61
2022-12-04T05:10:11.513Z,68.70
2022-12-04T05:11:11.485Z,68.41
2022-12-04T05:12:11.490Z,68.70
2022-12-04T05:13:11.479Z,68.80
2022-12-04T05:14:11.472Z,68.70
2022-12-04T05:15:11.473Z,68.70
2022-12-04T05:16:11.516Z,68.70
2022-12-04T05:17:12.915Z,68.51
2022-12-04T05:18:11.451Z,68.90
2022-12-04T05:19:11.451Z,68.32
2022-12-04T05:20:11.438Z,68.80
2022-12-04T05:21:11.423Z,68.70
2022-12-04T05:22:11.442Z,68.61
2022-12-04T05:23:11.454Z,68.61
2022-12-04T05:24:11.430Z,68.32
2022-12-04T05:25:11.415Z,68.51
2022-12-04T05:26:11.416Z,68.51
2022-12-04T05:27:11.418Z,68.70
2022-12-04T05:28:11.398Z,68.41
2022-12-04T05:29:11.391Z,68.70
2022-12-04T05:30:11.383Z,68.61
2022-12-04T05:31:11.517Z,68.70
2022-12-04T05:32:11.365Z,68.61
2022-12-04T05:33:11.370Z,68.41
2022-12-04T05:34:11.374Z,68.41
2022-12-04T05:35:11.863Z,68.51
2022-12-04T05:36:11.341Z,68.51
2022-12-04T05:37:11.332Z,68.51
2022-12-04T05:38:11.345Z,68.51
2022-12-04T05:39:11.354Z,68.32
2022-12-04T05:40:11.333Z,68.41
2022-12-04T05:41:11.328Z,68.41
2022-12-04T05:42:11.330Z,68.61
2022-12-04T05:43:11.322Z,68.13
2022-12-04T05:44:11.312Z,68.32
2022-12-04T05:45:11.289Z,68.51
2022-12-04T05:46:11.393Z,68.51
2022-12-04T05:47:11.379Z,68.51
2022-12-04T05:48:11.291Z,68.13
2022-12-04T05:49:11.286Z,68.41
2022-12-04T05:50:11.288Z,68.41
2022-12-04T05:51:11.284Z,68.32
2022-12-04T05:52:11.248Z,68.41
2022-12-04T05:53:11.246Z,68.32
2022-12-04T05:54:11.238Z,68.32
2022-12-04T05:55:11.283Z,68.41
2022-12-04T05:56:11.226Z,68.23
2022-12-04T05:57:11.229Z,68.32
2022-12-04T05:58:11.234Z,68.23
2022-12-04T05:59:11.224Z,68.23
2022-12-04T06:00:11.202Z,68.41
2022-12-04T06:01:11.204Z,68.32
2022-12-04T06:02:11.295Z,68.51
2022-12-04T06:03:11.320Z,68.51
2022-12-04T06:04:11.189Z,68.32
2022-12-04T06:05:11.182Z,68.41
2022-12-04T06:06:14.856Z,68.32
2022-12-04T06:07:11.201Z,68.41
2022-12-04T06:08:11.260Z,68.41
2022-12-04T06:09:11.171Z,68.32
2022-12-04T06:10:11.159Z,68.32
2022-12-04T06:11:11.187Z,68.51
2022-12-04T06:12:11.151Z,68.32
2022-12-04T06:13:11.149Z,68.41
2022-12-04T06:14:11.133Z,68.41
2022-12-04T06:15:11.148Z,68.41
2022-12-04T06:16:11.158Z,68.32
2022-12-04T06:17:11.126Z,68.51
2022-12-04T06:18:11.115Z,68.51
2022-12-04T06:19:11.105Z,68.41
2022-12-04T06:20:11.980Z,68.23
2022-12-04T06:21:11.104Z,68.41
2022-12-04T06:22:11.096Z,68.32
2022-12-04T06:23:11.106Z,68.32
2022-12-04T06:24:11.071Z,68.23
2022-12-04T06:25:11.080Z,68.32
2022-12-04T06:26:11.069Z,68.23
2022-12-04T06:27:27.233Z,68.41
2022-12-04T06:28:11.071Z,67.94
2022-12-04T06:29:11.065Z,68.23
2022-12-04T06:30:11.041Z,68.13
2022-12-04T06:31:11.102Z,67.84
2022-12-04T06:32:12.242Z,67.94
2022-12-04T06:33:11.028Z,68.23
2022-12-04T06:34:11.012Z,67.94
2022-12-04T06:35:11.031Z,68.41
2022-12-04T06:36:11.011Z,67.94
2022-12-04T06:37:11.011Z,67.84
2022-12-04T06:38:10.994Z,67.84
2022-12-04T06:39:14.166Z,68.13
2022-12-04T06:40:11.004Z,68.04
2022-12-04T06:41:10.988Z,67.94
2022-12-04T06:42:10.984Z,67.94
2022-12-04T06:43:10.992Z,68.04
2022-12-04T06:44:10.968Z,68.04
2022-12-04T06:45:10.960Z,68.04
2022-12-04T06:46:11.112Z,68.04
2022-12-04T06:47:10.950Z,68.32
2022-12-04T06:48:10.945Z,68.13
2022-12-04T06:49:10.936Z,68.32
2022-12-04T06:50:10.935Z,67.94
2022-12-04T06:51:10.931Z,67.94
2022-12-04T06:52:10.919Z,68.04
2022-12-04T06:53:10.942Z,68.23
2022-12-04T06:54:10.903Z,67.94
2022-12-04T06:55:10.903Z,68.13
2022-12-04T06:56:10.909Z,68.23
2022-12-04T06:57:10.889Z,67.91
2022-12-04T06:58:10.892Z,67.94
2022-12-04T06:59:10.917Z,68.04
2022-12-04T07:00:10.873Z,68.32
2022-12-04T07:01:11.001Z,68.23
2022-12-04T07:02:10.934Z,68.13
2022-12-04T07:03:10.862Z,68.04
2022-12-04T07:04:10.855Z,68.19
2022-12-04T07:05:10.857Z,68.04
2022-12-04T07:06:10.848Z,68.13
2022-12-04T07:07:10.852Z,68.04
2022-12-04T07:08:10.921Z,68.04
2022-12-04T07:09:10.836Z,68.04
2022-12-04T07:10:10.825Z,68.04
2022-12-04T07:11:10.821Z,67.94
2022-12-04T07:12:10.818Z,67.94
2022-12-04T07:13:10.810Z,68.10
2022-12-04T07:14:10.792Z,68.04
2022-12-04T07:15:10.824Z,68.23
2022-12-04T07:16:10.835Z,68.10
2022-12-04T07:17:10.853Z,68.00
2022-12-04T07:18:10.779Z,67.94
2022-12-04T07:19:10.763Z,67.94
2022-12-04T07:20:10.768Z,67.91
2022-12-04T07:21:10.761Z,67.91
2022-12-04T07:22:10.746Z,67.71
2022-12-04T07:23:10.751Z,67.75
2022-12-04T07:24:10.746Z,67.65
2022-12-04T07:25:10.744Z,67.75
2022-12-04T07:26:10.717Z,67.62
2022-12-04T07:27:10.717Z,67.62
2022-12-04T07:28:10.731Z,67.84
2022-12-04T07:29:10.781Z,68.23
2022-12-04T07:30:15.544Z,68.10
2022-12-04T07:31:10.730Z,67.65
2022-12-04T07:32:10.833Z,68.04
2022-12-04T07:33:10.688Z,67.52
2022-12-04T07:34:10.686Z,68.00
2022-12-04T07:35:10.878Z,67.84
2022-12-04T07:36:10.684Z,67.71
2022-12-04T07:37:10.660Z,67.62
2022-12-04T07:38:10.666Z,67.91
2022-12-04T07:39:10.665Z,67.91
2022-12-04T07:40:10.653Z,67.91
2022-12-04T07:41:10.656Z,67.75
2022-12-04T07:42:10.628Z,67.75
2022-12-04T07:43:10.631Z,67.91
2022-12-04T07:44:10.635Z,67.71
2022-12-04T07:45:10.632Z,67.91
2022-12-04T07:46:10.712Z,67.94
2022-12-04T07:47:10.647Z,67.81
2022-12-04T07:48:10.606Z,67.81
2022-12-04T07:49:10.598Z,67.91
2022-12-04T07:50:10.581Z,67.81
2022-12-04T07:51:10.583Z,67.71
2022-12-04T07:52:10.587Z,67.71
2022-12-04T07:53:10.594Z,67.71
2022-12-04T07:54:10.562Z,67.71
2022-12-04T07:55:10.573Z,67.75
2022-12-04T07:56:10.560Z,67.91
2022-12-04T07:57:10.548Z,67.75
2022-12-04T07:58:10.552Z,67.71
2022-12-04T07:59:10.563Z,67.84
2022-12-04T08:00:10.539Z,67.71
2022-12-04T08:01:10.553Z,67.71
2022-12-04T08:02:10.527Z,67.75
2022-12-04T08:03:10.542Z,67.94
2022-12-04T08:04:10.612Z,67.91
2022-12-04T08:05:10.525Z,68.00
2022-12-04T08:06:10.528Z,67.71
2022-12-04T08:07:10.504Z,68.10
2022-12-04T08:08:10.576Z,67.55
2022-12-04T08:09:10.649Z,67.33
2022-12-04T08:10:10.468Z,67.91
2022-12-04T08:11:10.484Z,67.91
2022-12-04T08:12:10.469Z,67.43
2022-12-04T08:13:10.467Z,67.46
2022-12-04T08:14:10.467Z,67.43
2022-12-04T08:15:10.459Z,67.46
2022-12-04T08:16:10.440Z,67.46
2022-12-04T08:17:10.500Z,67.27
2022-12-04T08:18:10.428Z,67.46
2022-12-04T08:19:10.457Z,67.62
2022-12-04T08:20:10.420Z,67.43
2022-12-04T08:21:10.412Z,67.33
2022-12-04T08:22:10.404Z,67.52
2022-12-04T08:23:10.415Z,67.43
2022-12-04T08:24:10.395Z,67.33
2022-12-04T08:25:10.401Z,67.52
2022-12-04T08:26:10.404Z,67.43
2022-12-04T08:27:10.377Z,67.52
2022-12-04T08:28:10.377Z,67.71
2022-12-04T08:29:10.367Z,67.81
2022-12-04T08:30:10.355Z,67.52
2022-12-04T08:31:10.445Z,67.43
2022-12-04T08:32:10.357Z,67.62
2022-12-04T08:33:10.347Z,67.81
2022-12-04T08:34:10.355Z,67.33
2022-12-04T08:35:10.383Z,67.71
2022-12-04T08:36:10.321Z,67.71
2022-12-04T08:37:10.319Z,67.52
2022-12-04T08:38:10.321Z,67.55
2022-12-04T08:39:10.318Z,67.65
2022-12-04T08:40:10.296Z,67.43
2022-12-04T08:41:10.307Z,67.62
2022-12-04T08:42:10.306Z,67.24
2022-12-04T08:43:10.294Z,67.33
2022-12-04T08:44:10.285Z,67.24
2022-12-04T08:45:10.281Z,67.14
2022-12-04T08:46:10.413Z,67.18
2022-12-04T08:47:10.270Z,67.27
2022-12-04T08:48:10.249Z,67.27
2022-12-04T08:49:10.250Z,67.46
2022-12-04T08:50:10.257Z,66.70
2022-12-04T08:51:10.261Z,66.79
2022-12-04T08:52:10.230Z,66.99
2022-12-04T08:53:10.253Z,66.99
2022-12-04T08:54:10.216Z,66.99
2022-12-04T08:55:10.232Z,66.79
2022-12-04T08:56:10.223Z,66.50
2022-12-04T08:57:10.216Z,66.70
2022-12-04T08:58:10.210Z,66.31
2022-12-04T08:59:10.200Z,66.41
2022-12-04T09:00:10.197Z,66.70
2022-12-04T09:01:10.265Z,66.31
2022-12-04T09:02:10.172Z,66.31
2022-12-04T09:03:10.188Z,66.60
2022-12-04T09:04:10.234Z,66.22
2022-12-04T09:05:10.169Z,66.13
2022-12-04T09:06:10.170Z,66.03
2022-12-04T09:07:10.191Z,65.84
2022-12-04T09:08:10.317Z,66.35
2022-12-04T09:09:10.161Z,66.16
2022-12-04T09:10:10.140Z,66.44
2022-12-04T09:11:10.128Z,66.25
2022-12-04T09:12:10.126Z,66.16
2022-12-04T09:13:10.119Z,66.16
2022-12-04T09:14:10.115Z,65.48
2022-12-04T09:15:10.106Z,65.68
2022-12-04T09:16:10.180Z,65.58
2022-12-04T09:17:10.113Z,65.48
2022-12-04T09:18:10.097Z,65.68
2022-12-04T09:19:10.086Z,65.68
2022-12-04T09:20:10.099Z,65.77
2022-12-04T09:21:10.102Z,65.77
2022-12-04T09:22:10.082Z,65.68
2022-12-04T09:23:10.113Z,65.68
2022-12-04T09:24:10.061Z,65.48
2022-12-04T09:25:10.075Z,65.77
2022-12-04T09:26:10.055Z,65.77
2022-12-04T09:27:14.665Z,65.48
2022-12-04T09:28:10.038Z,65.30
2022-12-04T09:29:10.056Z,65.48
2022-12-04T09:30:10.051Z,65.39
2022-12-04T09:31:10.128Z,65.58
2022-12-04T09:32:10.038Z,65.30
2022-12-04T09:33:10.031Z,65.42
2022-12-04T09:34:10.013Z,65.42
2022-12-04T09:35:10.039Z,65.39
2022-12-04T09:36:10.019Z,64.95
2022-12-04T09:37:10.004Z,64.85
2022-12-04T09:38:09.993Z,64.85
2022-12-04T09:39:10.015Z,64.85
2022-12-04T09:40:09.988Z,64.75
2022-12-04T09:41:09.986Z,64.85
2022-12-04T09:42:09.987Z,65.04
2022-12-04T09:43:09.986Z,65.14
2022-12-04T09:44:09.985Z,64.85
2022-12-04T09:45:09.981Z,65.14
2022-12-04T09:46:09.993Z,64.56
2022-12-04T09:47:10.028Z,65.42
2022-12-04T09:48:09.956Z,64.66
2022-12-04T09:49:09.968Z,64.75
2022-12-04T09:50:09.947Z,64.50
2022-12-04T09:51:09.936Z,64.69
2022-12-04T09:52:09.945Z,64.69
2022-12-04T09:53:09.933Z,64.88
2022-12-04T09:54:09.926Z,64.40
2022-12-04T09:55:09.948Z,64.22
2022-12-04T09:56:09.911Z,64.59
2022-12-04T09:57:09.918Z,64.02
2022-12-04T09:58:09.916Z,64.02
2022-12-04T09:59:09.958Z,64.25
2022-12-04T10:00:09.904Z,64.15
2022-12-04T10:01:09.908Z,64.15
2022-12-04T10:02:09.967Z,64.05
2022-12-04T10:03:10.045Z,63.76
2022-12-04T10:04:09.935Z,63.76
2022-12-04T10:05:09.888Z,63.86
2022-12-04T10:06:09.872Z,63.39
2022-12-04T10:07:09.896Z,63.57
2022-12-04T10:08:09.923Z,63.57
2022-12-04T10:09:09.857Z,63.48
2022-12-04T10:10:09.882Z,63.39
2022-12-04T10:11:09.869Z,63.67
2022-12-04T10:12:09.864Z,63.67
2022-12-04T10:13:09.841Z,63.48
2022-12-04T10:14:09.853Z,63.76
2022-12-04T10:15:09.850Z,63.70
2022-12-04T10:16:10.000Z,63.70
2022-12-04T10:17:09.822Z,63.60
2022-12-04T10:18:09.834Z,63.70
2022-12-04T10:19:09.825Z,63.48
2022-12-04T10:20:09.815Z,63.80
2022-12-04T10:21:09.822Z,63.51
2022-12-04T10:22:09.832Z,63.70
2022-12-04T10:23:13.780Z,63.42
2022-12-04T10:24:09.802Z,63.51
2022-12-04T10:25:09.805Z,63.42
2022-12-04T10:26:09.800Z,63.70
2022-12-04T10:27:09.856Z,63.89
2022-12-04T10:28:09.783Z,63.89
2022-12-04T10:29:09.778Z,64.09
2022-12-04T10:30:09.807Z,64.09
2022-12-04T10:31:09.814Z,63.89
2022-12-04T10:32:09.779Z,64.09
2022-12-04T10:33:09.810Z,64.37
2022-12-04T10:34:09.779Z,64.09
2022-12-04T10:35:09.761Z,64.09
2022-12-04T10:36:09.787Z,64.28
2022-12-04T10:37:09.753Z,64.85
2022-12-04T10:38:09.745Z,64.66
2022-12-04T10:39:09.749Z,64.66
2022-12-04T10:40:09.756Z,64.47
2022-12-04T10:41:14.655Z,64.66
2022-12-04T10:42:09.742Z,64.95
2022-12-04T10:43:09.759Z,64.63
2022-12-04T10:44:09.731Z,64.85
2022-12-04T10:45:09.741Z,64.25
2022-12-04T10:46:09.814Z,64.53
2022-12-04T10:47:09.761Z,64.63
2022-12-04T10:48:09.723Z,64.92
2022-12-04T10:49:09.719Z,65.30
2022-12-04T10:50:09.725Z,65.30
2022-12-04T10:51:09.704Z,64.53
2022-12-04T10:52:09.706Z,65.01
2022-12-04T10:53:13.732Z,65.55
2022-12-04T10:54:09.705Z,67.14
2022-12-04T10:55:09.679Z,68.26
2022-12-04T10:56:09.676Z,69.37
2022-12-04T10:57:09.679Z,71.06
2022-12-04T10:58:09.678Z,71.78
2022-12-04T10:59:09.686Z,73.37
2022-12-04T11:00:09.668Z,73.85
2022-12-04T11:01:09.645Z,74.57
2022-12-04T11:02:09.714Z,75.24
2022-12-04T11:03:09.711Z,76.16
2022-12-04T11:04:09.642Z,76.73
2022-12-04T11:05:09.629Z,76.98
2022-12-04T11:06:09.630Z,77.26
2022-12-04T11:07:09.609Z,77.36
2022-12-04T11:08:09.748Z,77.98
2022-12-04T11:09:09.629Z,78.17
2022-12-04T11:10:09.600Z,78.27
2022-12-04T11:11:09.585Z,78.33
2022-12-04T11:12:09.584Z,78.71
2022-12-04T11:13:09.569Z,78.71
2022-12-04T11:14:09.569Z,78.52
2022-12-04T11:15:09.558Z,78.90
2022-12-04T11:16:09.620Z,78.96
2022-12-04T11:17:09.535Z,79.33
2022-12-04T11:18:09.528Z,79.52
2022-12-04T11:19:09.501Z,79.05
2022-12-04T11:20:09.514Z,79.14
2022-12-04T11:21:09.479Z,79.24
2022-12-04T11:22:09.492Z,79.14
2022-12-04T11:23:09.488Z,79.77
2022-12-04T11:24:09.505Z,79.58
2022-12-04T11:25:09.453Z,79.68
2022-12-04T11:26:09.454Z,79.30
2022-12-04T11:27:09.421Z,79.49
2022-12-04T11:28:14.732Z,79.49
2022-12-04T11:29:09.408Z,79.77
2022-12-04T11:30:09.410Z,79.11
2022-12-04T11:31:09.526Z,79.30
2022-12-04T11:32:09.411Z,79.11
2022-12-04T11:33:09.361Z,78.44
2022-12-04T11:34:09.359Z,78.72
2022-12-04T11:35:09.357Z,78.06
2022-12-04T11:36:09.350Z,78.34
2022-12-04T11:37:09.416Z,77.68
2022-12-04T11:38:09.413Z,77.77
2022-12-04T11:39:09.298Z,78.06
2022-12-04T11:40:09.309Z,77.77
2022-12-04T11:41:09.282Z,77.87
2022-12-04T11:42:09.268Z,77.39
2022-12-04T11:43:09.264Z,76.67
2022-12-04T11:44:09.250Z,76.29
2022-12-04T11:45:09.237Z,75.43
2022-12-04T11:46:09.309Z,74.90
2022-12-04T11:47:09.300Z,73.95
2022-12-04T11:48:09.219Z,73.57
2022-12-04T11:49:09.203Z,72.71
2022-12-04T11:50:09.186Z,73.03
2022-12-04T11:51:09.183Z,71.98
2022-12-04T11:52:09.175Z,71.80
2022-12-04T11:53:09.176Z,71.17
2022-12-04T11:54:09.167Z,70.97
2022-12-04T11:55:09.151Z,70.88
2022-12-04T11:56:09.167Z,70.21
2022-12-04T11:57:09.127Z,69.96
2022-12-04T11:58:09.135Z,69.96
2022-12-04T11:59:09.109Z,69.29
2022-12-04T12:00:09.108Z,69.10
2022-12-04T12:01:09.116Z,69.01
2022-12-04T12:02:09.216Z,68.53
2022-12-04T12:03:09.300Z,68.38
2022-12-04T12:04:09.143Z,68.28
2022-12-04T12:05:09.060Z,68.47
2022-12-04T12:06:09.044Z,68.28
2022-12-04T12:07:09.048Z,68.09
2022-12-04T12:08:09.042Z,67.42
2022-12-04T12:09:09.036Z,67.80
2022-12-04T12:10:09.013Z,67.55
2022-12-04T12:11:09.006Z,67.83
2022-12-04T12:12:09.020Z,67.17
2022-12-04T12:13:08.992Z,67.07
2022-12-04T12:14:08.989Z,67.07
2022-12-04T12:15:08.988Z,67.36
2022-12-04T12:16:09.086Z,66.60
2022-12-04T12:17:08.975Z,66.69
2022-12-04T12:18:08.969Z,67.07
2022-12-04T12:19:08.972Z,66.88
2022-12-04T12:20:08.949Z,66.60
2022-12-04T12:21:08.951Z,66.41
2022-12-04T12:22:08.927Z,66.22
2022-12-04T12:23:08.946Z,66.15
2022-12-04T12:24:08.965Z,66.35
2022-12-04T12:25:08.921Z,66.25
2022-12-04T12:26:08.925Z,66.06
2022-12-04T12:27:08.916Z,65.96
2022-12-04T12:28:08.895Z,65.77
2022-12-04T12:29:08.889Z,66.06
2022-12-04T12:30:08.890Z,66.15
2022-12-04T12:31:08.964Z,66.15
2022-12-04T12:32:08.949Z,65.96
2022-12-04T12:33:08.875Z,65.58
2022-12-04T12:34:08.873Z,65.77
2022-12-04T12:35:08.867Z,65.87
2022-12-04T12:36:08.850Z,65.30
2022-12-04T12:37:08.843Z,65.20
2022-12-04T12:38:08.845Z,65.39
2022-12-04T12:39:08.838Z,65.58
2022-12-04T12:40:08.833Z,65.48
2022-12-04T12:41:08.825Z,65.52
2022-12-04T12:42:08.823Z,65.61
2022-12-04T12:43:08.863Z,65.52
2022-12-04T12:44:08.811Z,65.42
2022-12-04T12:45:08.799Z,65.52
2022-12-04T12:46:08.873Z,65.71
2022-12-04T12:47:08.788Z,65.61
2022-12-04T12:48:08.774Z,65.61
2022-12-04T12:49:08.774Z,65.71
2022-12-04T12:50:08.759Z,65.52
2022-12-04T12:51:29.021Z,65.23
2022-12-04T12:52:08.757Z,65.14